Time;durP1;ratioP1;P1;durP2;ratioP2;P2;SDS_P1;SDS_P2;PMS_P1;PMS_P2;Temp;Humidity;BMP_temperature;BMP_pressure;BME280_temperature;BME280_humidity;BME280_pressure;Samples;Min_cycle;Max_cycle;Signal;HPM_P1;HPM_P2
2021/11/29 00:00:23;;;;;;;70.97;42.17;;;;;;;;;;4859274;29;20200;-82
2021/11/29 00:02:52;;;;;;;71.75;42.20;;;;;;;;;;4859061;29;20041;-82
2021/11/29 00:05:18;;;;;;;48.25;30.83;;;;;;;;;;4859187;29;20029;-82
2021/11/29 00:07:44;;;;;;;43.08;28.17;;;;;;;;;;4858852;29;20053;-83
2021/11/29 00:10:10;;;;;;;39.25;27.38;;;;;;;;;;4858959;29;20112;-82
2021/11/29 00:12:37;;;;;;;42.72;27.05;;;;;;;;;;4859364;29;20080;-82
2021/11/29 00:15:04;;;;;;;66.80;37.67;;;;;;;;;;4858147;29;20041;-83
2021/11/29 00:17:30;;;;;;;38.35;24.58;;;;;;;;;;4858654;29;20044;-82
2021/11/29 00:19:56;;;;;;;32.08;22.75;;;;;;;;;;4858267;29;20108;-83
2021/11/29 00:22:22;;;;;;;40.85;27.92;;;;;;;;;;4859311;29;20041;-82
2021/11/29 00:24:48;;;;;;;37.25;25.17;;;;;;;;;;4858618;29;20149;-82
2021/11/29 00:27:14;;;;;;;40.42;26.25;;;;;;;;;;4842485;29;20048;-83
2021/11/29 00:29:42;;;;;;;41.67;28.52;;;;;;;;;;4857741;29;20061;-82
2021/11/29 00:32:09;;;;;;;34.25;22.08;;;;;;;;;;4842105;29;20052;-82
2021/11/29 00:34:35;;;;;;;45.83;29.35;;;;;;;;;;4842860;29;20045;-83
2021/11/29 00:37:01;;;;;;;31.98;21.88;;;;;;;;;;4840470;29;20045;-83
2021/11/29 00:39:27;;;;;;;36.38;26.20;;;;;;;;;;4839305;29;20041;-83
2021/11/29 00:41:53;;;;;;;28.30;19.88;;;;;;;;;;4839198;29;20050;-82
2021/11/29 00:44:19;;;;;;;31.17;21.40;;;;;;;;;;4841803;29;20210;-83
2021/11/29 00:46:45;;;;;;;29.48;21.92;;;;;;;;;;4858673;29;20033;-82
2021/11/29 00:49:11;;;;;;;48.28;30.05;;;;;;;;;;4857735;29;20045;-82
2021/11/29 00:51:37;;;;;;;34.03;22.58;;;;;;;;;;4858476;29;20214;-82
2021/11/29 00:54:03;;;;;;;35.80;23.65;;;;;;;;;;4857792;29;20170;-81
2021/11/29 00:56:30;;;;;;;58.50;34.35;;;;;;;;;;4857508;29;20599;-81
2021/11/29 00:58:56;;;;;;;55.05;33.70;;;;;;;;;;4857931;29;20032;-81
2021/11/29 01:01:22;;;;;;;54.70;34.08;;;;;;;;;;4857574;29;20041;-82
2021/11/29 01:03:49;;;;;;;33.60;23.17;;;;;;;;;;4857846;29;20033;-82
2021/11/29 01:06:15;;;;;;;29.15;20.67;;;;;;;;;;4840580;29;20041;-82
2021/11/29 01:08:42;;;;;;;27.30;19.52;;;;;;;;;;4841323;29;20065;-81
2021/11/29 01:11:09;;;;;;;34.15;24.05;;;;;;;;;;4837748;29;20392;-81
2021/11/29 01:13:35;;;;;;;29.50;21.17;;;;;;;;;;4839661;29;20053;-82
2021/11/29 01:16:02;;;;;;;29.10;22.42;;;;;;;;;;4846513;29;20030;-82
2021/11/29 01:18:28;;;;;;;42.75;31.50;;;;;;;;;;4858089;29;20069;-83
2021/11/29 01:20:54;;;;;;;56.33;33.47;;;;;;;;;;4840877;29;20101;-83
2021/11/29 01:23:20;;;;;;;48.35;31.45;;;;;;;;;;4840805;29;20074;-83
2021/11/29 01:25:47;;;;;;;56.42;33.38;;;;;;;;;;4840521;29;20065;-82
2021/11/29 01:28:13;;;;;;;61.95;37.47;;;;;;;;;;4857463;29;20103;-82
2021/11/29 01:30:39;;;;;;;58.75;34.58;;;;;;;;;;4856923;29;20054;-82
2021/11/29 01:33:06;;;;;;;38.42;26.70;;;;;;;;;;4857570;29;20029;-82
2021/11/29 01:35:32;;;;;;;41.78;28.67;;;;;;;;;;4857587;29;20044;-82
2021/11/29 01:37:58;;;;;;;42.88;27.25;;;;;;;;;;4841340;29;20056;-82
2021/11/29 01:40:24;;;;;;;45.97;28.17;;;;;;;;;;4837684;29;20034;-83
2021/11/29 01:42:58;;;;;;;45.10;27.73;;;;;;;;;;4852615;29;20041;-83
2021/11/29 01:45:24;;;;;;;38.20;24.92;;;;;;;;;;4857635;29;20071;-82
2021/11/29 01:47:50;;;;;;;34.63;23.33;;;;;;;;;;4840419;29;20046;-83
2021/11/29 01:50:16;;;;;;;34.50;24.25;;;;;;;;;;4840541;29;20127;-82
2021/11/29 01:52:42;;;;;;;30.98;20.30;;;;;;;;;;4840270;29;20048;-83
2021/11/29 01:55:08;;;;;;;31.45;21.30;;;;;;;;;;4857305;29;20042;-82
2021/11/29 01:57:34;;;;;;;32.75;24.02;;;;;;;;;;4853238;29;20042;-83
2021/11/29 02:00:01;;;;;;;25.17;19.02;;;;;;;;;;4857295;29;20033;-82
2021/11/29 02:02:28;;;;;;;27.00;19.23;;;;;;;;;;4857078;29;20045;-82
2021/11/29 02:04:58;;;;;;;25.85;18.27;;;;;;;;;;4857564;29;20115;-82
2021/11/29 02:07:24;;;;;;;23.65;16.35;;;;;;;;;;4857426;29;20045;-82
2021/11/29 02:09:50;;;;;;;24.75;16.85;;;;;;;;;;4857409;29;20555;-82
2021/11/29 02:12:16;;;;;;;25.48;18.80;;;;;;;;;;4856527;29;20065;-82
2021/11/29 02:14:46;;;;;;;21.13;15.52;;;;;;;;;;4857437;29;20037;-82
2021/11/29 02:17:12;;;;;;;20.50;15.05;;;;;;;;;;4836554;29;20567;-82
2021/11/29 02:19:42;;;;;;;24.20;17.25;;;;;;;;;;4840496;29;20034;-82
2021/11/29 02:22:08;;;;;;;23.23;15.93;;;;;;;;;;4854170;29;20062;-82
2021/11/29 02:24:35;;;;;;;21.75;15.05;;;;;;;;;;4840000;29;20066;-82
2021/11/29 02:27:01;;;;;;;33.30;21.77;;;;;;;;;;4856877;29;20047;-82
2021/11/29 02:29:27;;;;;;;35.88;23.55;;;;;;;;;;4839086;29;20777;-82
2021/11/29 02:31:53;;;;;;;21.95;16.80;;;;;;;;;;4850193;29;20072;-81
2021/11/29 02:34:21;;;;;;;39.72;23.00;;;;;;;;;;4853664;29;20484;-82
2021/11/29 02:36:48;;;;;;;36.90;22.83;;;;;;;;;;4854088;29;20034;-82
2021/11/29 02:39:15;;;;;;;28.13;19.00;;;;;;;;;;4852775;29;20037;-81
2021/11/29 02:41:42;;;;;;;25.00;17.58;;;;;;;;;;4860772;29;20046;-82
2021/11/29 02:44:08;;;;;;;25.05;17.02;;;;;;;;;;4860007;29;20074;-82
2021/11/29 02:46:34;;;;;;;20.77;15.15;;;;;;;;;;4851311;29;20045;-82
2021/11/29 02:49:01;;;;;;;30.83;19.48;;;;;;;;;;4855106;29;20037;-82
2021/11/29 02:51:29;;;;;;;22.80;17.50;;;;;;;;;;4860402;29;20041;-81
2021/11/29 02:54:18;;;;;;;24.02;14.93;;;;;;;;;;4872928;29;20041;-82
2021/11/29 02:56:46;;;;;;;16.95;12.00;;;;;;;;;;4876368;29;20056;-82
2021/11/29 02:59:14;;;;;;;19.02;12.88;;;;;;;;;;4864534;29;20066;-81
2021/11/29 03:01:40;;;;;;;17.30;12.07;;;;;;;;;;4843886;29;20128;-82
2021/11/29 03:04:07;;;;;;;22.83;13.85;;;;;;;;;;4871226;29;20041;-82
2021/11/29 03:06:33;;;;;;;22.35;13.63;;;;;;;;;;4878778;29;20041;-81
2021/11/29 03:08:59;;;;;;;19.67;13.75;;;;;;;;;;4868805;29;20030;-82
2021/11/29 03:11:26;;;;;;;13.57;9.73;;;;;;;;;;4844397;29;20069;-81
2021/11/29 03:13:52;;;;;;;19.20;13.05;;;;;;;;;;4848172;29;20128;-82
2021/11/29 03:16:18;;;;;;;11.15;7.15;;;;;;;;;;4859744;29;20059;-82
2021/11/29 03:18:45;;;;;;;13.40;8.98;;;;;;;;;;4859508;29;20053;-82
2021/11/29 03:21:14;;;;;;;13.10;8.88;;;;;;;;;;4853419;29;20034;-82
2021/11/29 03:23:41;;;;;;;13.10;9.32;;;;;;;;;;4843568;29;20033;-82
2021/11/29 03:26:09;;;;;;;14.68;9.45;;;;;;;;;;4859806;29;20128;-82
2021/11/29 03:28:36;;;;;;;16.77;10.75;;;;;;;;;;4859486;29;20037;-82
2021/11/29 03:31:02;;;;;;;14.57;9.40;;;;;;;;;;4859760;29;20416;-82
2021/11/29 03:33:28;;;;;;;12.23;7.45;;;;;;;;;;4843197;29;20078;-82
2021/11/29 03:35:55;;;;;;;13.30;7.68;;;;;;;;;;4859125;29;20030;-82
2021/11/29 03:38:21;;;;;;;14.95;9.63;;;;;;;;;;4859377;29;20029;-82
2021/11/29 03:40:47;;;;;;;8.00;5.32;;;;;;;;;;4844701;29;20113;-82
2021/11/29 03:43:13;;;;;;;12.13;7.22;;;;;;;;;;4839582;29;20041;-82
2021/11/29 03:45:39;;;;;;;12.10;6.45;;;;;;;;;;4841672;29;20042;-82
2021/11/29 03:48:05;;;;;;;15.00;9.48;;;;;;;;;;4859606;29;20041;-82
2021/11/29 03:50:31;;;;;;;11.55;7.15;;;;;;;;;;4838440;29;20136;-81
2021/11/29 03:52:57;;;;;;;10.32;5.78;;;;;;;;;;4840597;29;20643;-81
2021/11/29 03:55:23;;;;;;;13.25;7.03;;;;;;;;;;4842769;29;20210;-81
2021/11/29 03:57:49;;;;;;;14.02;7.43;;;;;;;;;;4859570;29;20101;-82
2021/11/29 04:00:16;;;;;;;14.02;8.50;;;;;;;;;;4841775;29;20124;-82
2021/11/29 04:02:42;;;;;;;10.25;6.50;;;;;;;;;;4859320;29;20187;-81
2021/11/29 04:05:09;;;;;;;13.93;7.72;;;;;;;;;;4858940;29;20040;-82
2021/11/29 04:07:35;;;;;;;12.80;8.63;;;;;;;;;;4858375;29;20074;-81
2021/11/29 04:10:01;;;;;;;14.27;9.80;;;;;;;;;;4858995;29;20038;-82
2021/11/29 04:12:27;;;;;;;13.45;9.90;;;;;;;;;;4844391;29;20037;-81
2021/11/29 04:14:53;;;;;;;15.27;9.50;;;;;;;;;;4840417;29;20166;-82
2021/11/29 04:17:19;;;;;;;13.13;8.40;;;;;;;;;;4852163;29;20132;-82
2021/11/29 04:19:46;;;;;;;15.15;10.25;;;;;;;;;;4858760;29;20612;-82
2021/11/29 04:22:13;;;;;;;15.27;9.85;;;;;;;;;;4858719;29;20061;-82
2021/11/29 04:24:41;;;;;;;12.98;8.70;;;;;;;;;;4842040;29;20113;-82
2021/11/29 04:27:07;;;;;;;14.40;10.07;;;;;;;;;;4858362;29;20026;-82
2021/11/29 04:29:38;;;;;;;15.93;9.82;;;;;;;;;;4858487;29;20113;-82
2021/11/29 04:32:04;;;;;;;12.50;7.63;;;;;;;;;;4858378;29;20363;-82
2021/11/29 04:34:30;;;;;;;11.20;6.63;;;;;;;;;;4858362;29;20033;-82
2021/11/29 04:36:56;;;;;;;13.23;8.20;;;;;;;;;;4858214;29;20034;-82
2021/11/29 04:39:22;;;;;;;12.65;8.45;;;;;;;;;;4843315;29;20034;-82
2021/11/29 04:41:49;;;;;;;10.55;7.25;;;;;;;;;;4838968;29;20758;-82
2021/11/29 04:44:15;;;;;;;14.68;7.57;;;;;;;;;;4841912;29;20041;-81
2021/11/29 04:46:41;;;;;;;15.35;8.57;;;;;;;;;;4857410;29;20108;-81
2021/11/29 04:49:07;;;;;;;12.95;7.07;;;;;;;;;;4836922;29;20041;-81
2021/11/29 04:51:33;;;;;;;10.98;6.47;;;;;;;;;;4858117;29;20044;-81
2021/11/29 04:54:00;;;;;;;10.40;6.63;;;;;;;;;;4845934;29;20041;-81
2021/11/29 04:56:26;;;;;;;11.30;6.43;;;;;;;;;;4843102;29;20125;-80
2021/11/29 04:58:52;;;;;;;11.80;7.47;;;;;;;;;;4858352;29;20120;-81
2021/11/29 05:01:18;;;;;;;12.98;7.95;;;;;;;;;;4856786;29;20026;-82
2021/11/29 05:03:44;;;;;;;12.57;7.70;;;;;;;;;;4839618;29;20033;-82
2021/11/29 05:06:10;;;;;;;14.98;8.95;;;;;;;;;;4839714;29;20122;-81
2021/11/29 05:08:36;;;;;;;18.23;10.65;;;;;;;;;;4839404;29;20042;-82
2021/11/29 05:11:03;;;;;;;17.73;11.30;;;;;;;;;;4838333;29;20120;-81
2021/11/29 05:13:29;;;;;;;12.50;7.75;;;;;;;;;;4852503;29;20049;-81
2021/11/29 05:15:55;;;;;;;13.45;7.35;;;;;;;;;;4857930;29;20074;-82
2021/11/29 05:18:21;;;;;;;15.18;8.27;;;;;;;;;;4837257;29;20118;-82
2021/11/29 05:20:48;;;;;;;9.43;5.50;;;;;;;;;;4839365;29;20032;-82
2021/11/29 05:23:16;;;;;;;11.55;5.85;;;;;;;;;;4847739;29;20049;-82
2021/11/29 05:25:42;;;;;;;10.68;5.95;;;;;;;;;;4857895;29;20035;-82
2021/11/29 05:28:08;;;;;;;13.13;6.57;;;;;;;;;;4840835;29;20132;-82
2021/11/29 05:30:34;;;;;;;14.88;8.77;;;;;;;;;;4857535;29;20061;-81
2021/11/29 05:33:01;;;;;;;15.15;8.85;;;;;;;;;;4854873;29;20033;-81
2021/11/29 05:35:27;;;;;;;18.10;9.85;;;;;;;;;;4857201;29;20067;-81
2021/11/29 05:37:53;;;;;;;9.63;6.45;;;;;;;;;;4855829;29;20464;-82
2021/11/29 05:40:19;;;;;;;14.18;9.68;;;;;;;;;;4839318;29;20113;-81
2021/11/29 05:42:46;;;;;;;11.65;7.90;;;;;;;;;;4839312;29;20034;-81
2021/11/29 05:45:12;;;;;;;16.80;8.93;;;;;;;;;;4857089;29;20116;-81
2021/11/29 05:47:39;;;;;;;17.60;10.88;;;;;;;;;;4857346;29;20034;-82
2021/11/29 05:50:06;;;;;;;12.20;8.40;;;;;;;;;;4857590;29;20480;-81
2021/11/29 05:52:33;;;;;;;11.13;7.28;;;;;;;;;;4857455;29;20037;-81
2021/11/29 05:54:59;;;;;;;12.00;7.07;;;;;;;;;;4857288;29;20042;-81
2021/11/29 05:57:25;;;;;;;10.63;5.22;;;;;;;;;;4840787;29;20034;-81
2021/11/29 05:59:51;;;;;;;8.15;3.90;;;;;;;;;;4857396;29;20033;-81
2021/11/29 06:02:17;;;;;;;9.25;4.47;;;;;;;;;;4857056;29;20037;-81
2021/11/29 06:04:43;;;;;;;7.63;4.38;;;;;;;;;;4840571;29;20038;-81
2021/11/29 06:07:09;;;;;;;11.27;3.97;;;;;;;;;;4856929;29;20041;-81
2021/11/29 06:09:35;;;;;;;9.32;3.90;;;;;;;;;;4857212;29;20071;-81
2021/11/29 06:12:01;;;;;;;10.25;3.75;;;;;;;;;;4852142;29;20065;-81
2021/11/29 06:14:27;;;;;;;7.93;4.07;;;;;;;;;;4857902;29;20034;-81
2021/11/29 06:16:54;;;;;;;6.65;3.30;;;;;;;;;;4856064;29;20034;-82
2021/11/29 06:19:20;;;;;;;9.27;5.05;;;;;;;;;;4873796;29;20077;-81
2021/11/29 06:21:46;;;;;;;7.47;4.53;;;;;;;;;;4857734;29;20468;-81
2021/11/29 06:24:12;;;;;;;6.82;3.53;;;;;;;;;;4852018;29;20074;-81
2021/11/29 06:26:39;;;;;;;10.20;4.15;;;;;;;;;;4857689;29;20037;-81
2021/11/29 06:29:05;;;;;;;9.18;4.13;;;;;;;;;;4842551;29;20062;-81
2021/11/29 06:31:31;;;;;;;9.55;3.92;;;;;;;;;;4869028;29;20124;-80
2021/11/29 06:33:58;;;;;;;9.27;4.03;;;;;;;;;;4847665;29;20581;-81
2021/11/29 06:36:28;;;;;;;17.42;4.82;;;;;;;;;;4863282;29;20041;-83
2021/11/29 06:38:55;;;;;;;19.52;6.75;;;;;;;;;;4854636;29;20108;-81
2021/11/29 06:41:21;;;;;;;12.18;5.10;;;;;;;;;;4863305;29;20030;-83
2021/11/29 06:43:48;;;;;;;14.93;4.97;;;;;;;;;;4842733;29;20729;-83
2021/11/29 06:46:14;;;;;;;16.42;5.85;;;;;;;;;;4854267;29;20052;-84
2021/11/29 06:48:40;;;;;;;10.57;5.72;;;;;;;;;;4850436;29;20491;-84
2021/11/29 06:51:06;;;;;;;14.40;6.85;;;;;;;;;;4853865;29;20120;-81
2021/11/29 06:53:33;;;;;;;13.70;5.53;;;;;;;;;;4855357;29;21735;-82
2021/11/29 06:56:00;;;;;;;13.88;6.05;;;;;;;;;;4859141;29;20037;-83
2021/11/29 06:58:27;;;;;;;13.43;4.95;;;;;;;;;;4838032;29;20041;-81
2021/11/29 07:00:53;;;;;;;15.20;8.40;;;;;;;;;;4837638;29;20037;-82
2021/11/29 07:03:19;;;;;;;14.85;8.80;;;;;;;;;;4850780;29;20643;-82
2021/11/29 07:05:45;;;;;;;16.38;6.45;;;;;;;;;;4853683;29;20037;-82
2021/11/29 07:08:11;;;;;;;13.20;6.57;;;;;;;;;;4837333;29;20416;-82
2021/11/29 07:10:40;;;;;;;9.75;4.78;;;;;;;;;;4854636;29;20033;-84
2021/11/29 07:13:07;;;;;;;10.60;5.03;;;;;;;;;;4841769;29;20982;-84
2021/11/29 07:15:33;;;;;;;16.00;6.25;;;;;;;;;;4849437;29;20109;-83
2021/11/29 07:18:00;;;;;;;12.50;4.90;;;;;;;;;;4849433;29;20662;-83
2021/11/29 07:20:26;;;;;;;10.23;5.78;;;;;;;;;;4858147;29;20038;-82
2021/11/29 07:22:52;;;;;;;12.77;6.85;;;;;;;;;;4859576;29;20025;-82
2021/11/29 07:25:18;;;;;;;80.95;26.17;;;;;;;;;;4869522;29;20044;-81
2021/11/29 07:27:44;;;;;;;43.22;18.73;;;;;;;;;;4870443;29;20043;-82
2021/11/29 07:30:11;;;;;;;36.72;15.05;;;;;;;;;;4850058;29;20854;-81
2021/11/29 07:32:37;;;;;;;29.90;15.13;;;;;;;;;;4852216;29;20037;-81
2021/11/29 07:35:04;;;;;;;26.05;13.00;;;;;;;;;;4848632;29;20046;-82
2021/11/29 07:37:30;;;;;;;31.35;12.90;;;;;;;;;;4859380;29;20053;-81
2021/11/29 07:39:56;;;;;;;18.35;8.50;;;;;;;;;;4858878;29;20479;-83
2021/11/29 07:42:22;;;;;;;17.05;9.18;;;;;;;;;;4858474;29;20057;-82
2021/11/29 07:44:48;;;;;;;16.27;7.82;;;;;;;;;;4851793;29;20460;-81
2021/11/29 07:47:15;;;;;;;13.73;6.90;;;;;;;;;;4855958;29;20041;-81
2021/11/29 07:49:41;;;;;;;13.25;6.82;;;;;;;;;;4851701;29;20038;-82
2021/11/29 07:52:08;;;;;;;13.40;6.80;;;;;;;;;;4863501;29;20459;-83
2021/11/29 07:54:35;;;;;;;17.77;7.70;;;;;;;;;;4861487;29;20798;-82
2021/11/29 07:57:01;;;;;;;16.52;6.95;;;;;;;;;;4860318;29;20037;-82
2021/11/29 07:59:27;;;;;;;15.18;8.43;;;;;;;;;;4862545;29;20074;-82
2021/11/29 08:01:53;;;;;;;18.85;8.52;;;;;;;;;;4858916;29;20515;-80
2021/11/29 08:04:19;;;;;;;15.73;7.20;;;;;;;;;;4855949;29;20049;-81
2021/11/29 08:06:45;;;;;;;16.75;8.10;;;;;;;;;;4866526;29;20036;-81
2021/11/29 08:09:11;;;;;;;14.50;7.65;;;;;;;;;;4874010;29;20041;-81
2021/11/29 08:11:39;;;;;;;11.95;7.10;;;;;;;;;;4859241;29;20556;-81
2021/11/29 08:14:05;;;;;;;15.48;8.52;;;;;;;;;;4858838;29;20881;-82
2021/11/29 08:16:31;;;;;;;14.70;7.88;;;;;;;;;;4860733;29;20037;-82
2021/11/29 08:18:57;;;;;;;19.92;8.50;;;;;;;;;;4857282;29;20037;-81
2021/11/29 08:21:23;;;;;;;17.02;10.80;;;;;;;;;;4837991;29;20037;-81
2021/11/29 08:23:49;;;;;;;13.85;7.72;;;;;;;;;;4856587;29;20545;-82
2021/11/29 08:26:15;;;;;;;17.70;9.20;;;;;;;;;;4854476;29;20150;-81
2021/11/29 08:28:41;;;;;;;19.05;10.07;;;;;;;;;;4858245;29;20044;-81
2021/11/29 08:31:07;;;;;;;16.02;9.68;;;;;;;;;;4854675;29;20045;-82
2021/11/29 08:33:33;;;;;;;17.80;9.50;;;;;;;;;;4868127;29;20045;-81
2021/11/29 08:35:59;;;;;;;18.38;8.95;;;;;;;;;;4852965;29;20034;-81
2021/11/29 08:38:25;;;;;;;18.85;9.27;;;;;;;;;;4865211;29;20041;-82
2021/11/29 08:40:51;;;;;;;15.68;9.20;;;;;;;;;;4857787;29;20503;-79
2021/11/29 08:43:18;;;;;;;15.93;8.10;;;;;;;;;;4874844;29;20115;-82
2021/11/29 08:45:46;;;;;;;19.35;11.32;;;;;;;;;;4857482;29;20033;-81
2021/11/29 08:48:12;;;;;;;17.40;10.63;;;;;;;;;;4871999;29;20056;-81
2021/11/29 08:50:39;;;;;;;16.52;9.68;;;;;;;;;;4865396;29;20044;-80
2021/11/29 08:53:07;;;;;;;16.95;8.77;;;;;;;;;;4856486;29;20109;-80
2021/11/29 08:55:35;;;;;;;13.80;8.23;;;;;;;;;;4847681;29;20042;-82
2021/11/29 08:58:01;;;;;;;15.13;10.63;;;;;;;;;;4865574;29;20043;-83
2021/11/29 09:00:27;;;;;;;18.52;11.32;;;;;;;;;;4825350;29;20033;-83
2021/11/29 09:02:54;;;;;;;20.00;10.88;;;;;;;;;;4842610;29;20033;-83
2021/11/29 09:05:20;;;;;;;23.45;13.13;;;;;;;;;;4842422;29;20038;-83
2021/11/29 09:07:46;;;;;;;19.05;10.88;;;;;;;;;;4844759;29;20070;-83
2021/11/29 09:10:13;;;;;;;17.98;11.10;;;;;;;;;;4853792;29;20053;-83
2021/11/29 09:12:40;;;;;;;16.90;9.75;;;;;;;;;;4855247;29;20045;-83
2021/11/29 09:15:07;;;;;;;18.45;10.93;;;;;;;;;;4841255;29;20170;-83
2021/11/29 09:17:33;;;;;;;16.30;10.38;;;;;;;;;;4856806;29;20120;-83
2021/11/29 09:19:59;;;;;;;16.20;9.93;;;;;;;;;;4842358;29;20812;-84
2021/11/29 09:22:26;;;;;;;18.85;10.45;;;;;;;;;;4843832;29;20564;-83
2021/11/29 09:24:52;;;;;;;20.52;11.20;;;;;;;;;;4844017;29;20026;-83
2021/11/29 09:27:18;;;;;;;14.70;10.02;;;;;;;;;;4840630;29;20499;-83
2021/11/29 09:29:48;;;;;;;16.75;10.35;;;;;;;;;;4841363;29;20061;-83
2021/11/29 09:32:15;;;;;;;16.85;8.60;;;;;;;;;;4834569;29;20042;-83
2021/11/29 09:34:41;;;;;;;19.25;9.98;;;;;;;;;;4840641;29;20029;-82
2021/11/29 09:37:07;;;;;;;18.25;10.27;;;;;;;;;;4839677;29;20038;-82
2021/11/29 09:39:33;;;;;;;16.65;10.43;;;;;;;;;;4845287;29;20065;-82
2021/11/29 09:42:01;;;;;;;23.13;11.05;;;;;;;;;;4841200;29;20030;-83
2021/11/29 09:44:27;;;;;;;15.15;9.70;;;;;;;;;;4853873;29;20110;-83
2021/11/29 09:46:53;;;;;;;19.35;10.05;;;;;;;;;;4833306;29;20041;-83
2021/11/29 09:49:20;;;;;;;14.70;9.65;;;;;;;;;;4843694;29;20053;-83
2021/11/29 09:51:46;;;;;;;18.10;11.30;;;;;;;;;;4848071;29;20518;-82
2021/11/29 09:54:12;;;;;;;19.15;12.02;;;;;;;;;;4835566;29;20045;-82
2021/11/29 09:56:38;;;;;;;22.15;13.13;;;;;;;;;;4835796;29;20038;-80
2021/11/29 09:59:05;;;;;;;20.13;12.65;;;;;;;;;;4846908;29;20033;-80
2021/11/29 10:01:31;;;;;;;23.58;13.05;;;;;;;;;;4846867;29;20132;-80
2021/11/29 10:03:58;;;;;;;22.80;11.98;;;;;;;;;;4851466;29;20041;-80
2021/11/29 10:06:24;;;;;;;20.23;11.20;;;;;;;;;;4855288;29;20044;-80
2021/11/29 10:08:51;;;;;;;18.48;11.43;;;;;;;;;;4853029;29;20389;-79
2021/11/29 10:11:18;;;;;;;16.17;10.77;;;;;;;;;;4850464;29;20689;-80
2021/11/29 10:13:55;;;;;;;13.93;9.27;;;;;;;;;;4844237;29;20077;-80
2021/11/29 10:16:41;;;;;;;18.13;10.20;;;;;;;;;;4843446;29;20033;-80
2021/11/29 10:19:11;;;;;;;15.32;10.82;;;;;;;;;;4849063;29;20037;-79
2021/11/29 10:21:38;;;;;;;16.23;10.32;;;;;;;;;;4848375;29;20025;-79
2021/11/29 10:24:04;;;;;;;16.13;9.68;;;;;;;;;;4852432;29;20033;-80
2021/11/29 10:26:32;;;;;;;17.30;9.80;;;;;;;;;;4831518;29;20038;-80
2021/11/29 10:28:58;;;;;;;17.60;9.73;;;;;;;;;;4851647;29;20057;-79
2021/11/29 10:31:24;;;;;;;17.45;10.23;;;;;;;;;;4847678;29;20062;-79
2021/11/29 10:34:05;;;;;;;18.60;10.18;;;;;;;;;;4847949;29;20038;-80
2021/11/29 10:36:34;;;;;;;16.58;10.93;;;;;;;;;;4854958;29;20041;-81
2021/11/29 10:39:02;;;;;;;25.80;15.70;;;;;;;;;;4855946;29;20033;-80
2021/11/29 10:41:31;;;;;;;20.23;12.13;;;;;;;;;;4849044;29;20029;-80
2021/11/29 10:43:57;;;;;;;21.80;13.38;;;;;;;;;;4847865;29;20037;-81
2021/11/29 10:46:28;;;;;;;16.58;10.25;;;;;;;;;;4851776;29;20034;-79
2021/11/29 10:48:56;;;;;;;18.70;11.60;;;;;;;;;;4848996;29;20037;-80
2021/11/29 10:51:23;;;;;;;19.70;11.27;;;;;;;;;;4849319;29;20120;-79
2021/11/29 10:53:50;;;;;;;20.23;13.65;;;;;;;;;;4851371;29;20084;-80
2021/11/29 10:56:17;;;;;;;21.25;14.00;;;;;;;;;;4850933;29;20065;-79
2021/11/29 10:58:44;;;;;;;22.13;16.58;;;;;;;;;;4848094;29;20408;-80
2021/11/29 11:01:10;;;;;;;20.27;15.02;;;;;;;;;;4851149;29;20085;-80
2021/11/29 11:03:56;;;;;;;18.02;11.55;;;;;;;;;;4859908;29;20034;-80
2021/11/29 11:06:26;;;;;;;18.30;9.68;;;;;;;;;;4849775;29;20030;-80
2021/11/29 11:08:53;;;;;;;14.43;8.25;;;;;;;;;;4860890;29;20041;-80
2021/11/29 11:11:30;;;;;;;16.10;9.63;;;;;;;;;;4861820;29;20037;-79
2021/11/29 11:13:57;;;;;;;16.25;10.32;;;;;;;;;;4864838;29;20045;-80
2021/11/29 11:16:39;;;;;;;16.75;10.45;;;;;;;;;;4845082;29;20102;-79
2021/11/29 11:19:05;;;;;;;15.77;10.13;;;;;;;;;;4859732;29;20648;-80
2021/11/29 11:21:34;;;;;;;16.73;11.10;;;;;;;;;;4859180;29;20106;-79
2021/11/29 11:24:26;;;;;;;17.73;11.95;;;;;;;;;;4843334;29;20692;-80
2021/11/29 11:26:56;;;;;;;20.23;12.05;;;;;;;;;;4842366;29;20121;-80
2021/11/29 11:29:37;;;;;;;17.45;11.43;;;;;;;;;;4875147;29;20065;-80
2021/11/29 11:32:09;;;;;;;17.88;11.82;;;;;;;;;;4860764;29;20064;-80
2021/11/29 11:34:36;;;;;;;18.27;10.57;;;;;;;;;;4843723;29;20041;-81
2021/11/29 11:37:03;;;;;;;16.75;10.25;;;;;;;;;;4841180;29;20124;-80
2021/11/29 11:39:29;;;;;;;18.55;10.07;;;;;;;;;;4846894;29;20037;-81
2021/11/29 11:41:56;;;;;;;17.50;8.82;;;;;;;;;;4850800;29;20030;-80
2021/11/29 11:44:22;;;;;;;14.07;9.38;;;;;;;;;;4842407;29;20037;-80
2021/11/29 11:46:50;;;;;;;16.35;10.57;;;;;;;;;;4854191;29;20124;-81
2021/11/29 11:49:16;;;;;;;12.73;8.48;;;;;;;;;;4846244;29;20074;-80
2021/11/29 11:51:42;;;;;;;14.30;8.25;;;;;;;;;;4853870;29;20029;-81
2021/11/29 11:54:08;;;;;;;14.27;9.63;;;;;;;;;;4852339;29;20557;-80
2021/11/29 11:56:34;;;;;;;23.05;12.98;;;;;;;;;;4841688;29;20060;-81
2021/11/29 11:59:09;;;;;;;17.08;11.90;;;;;;;;;;4858998;29;20084;-80
2021/11/29 12:01:39;;;;;;;23.02;17.30;;;;;;;;;;4852158;29;20420;-80
2021/11/29 12:04:10;;;;;;;30.92;22.92;;;;;;;;;;4857248;29;20038;-80
2021/11/29 12:06:37;;;;;;;17.67;11.90;;;;;;;;;;4857054;29;20033;-80
2021/11/29 12:09:09;;;;;;;16.77;12.07;;;;;;;;;;4840599;29;20386;-81
2021/11/29 12:11:38;;;;;;;20.77;12.63;;;;;;;;;;4840235;29;20041;-80
2021/11/29 12:14:06;;;;;;;17.55;12.35;;;;;;;;;;4842191;29;20447;-79
2021/11/29 12:16:32;;;;;;;25.00;12.07;;;;;;;;;;4852074;29;20711;-80
2021/11/29 12:18:58;;;;;;;17.15;10.75;;;;;;;;;;4851012;29;20038;-80
2021/11/29 12:21:26;;;;;;;16.60;11.00;;;;;;;;;;4849229;29;20078;-80
2021/11/29 12:24:11;;;;;;;17.60;11.50;;;;;;;;;;4851886;29;21620;-80
2021/11/29 12:26:49;;;;;;;16.98;11.13;;;;;;;;;;4852364;29;20436;-80
2021/11/29 12:29:24;;;;;;;15.32;9.77;;;;;;;;;;4850207;29;20534;-80
2021/11/29 12:31:58;;;;;;;12.57;7.93;;;;;;;;;;4847080;29;20062;-80
2021/11/29 12:34:44;;;;;;;11.85;8.00;;;;;;;;;;4849891;29;20144;-81
2021/11/29 12:37:17;;;;;;;11.88;7.47;;;;;;;;;;4850054;29;20045;-80
2021/11/29 12:39:48;;;;;;;10.55;6.65;;;;;;;;;;4857879;29;20795;-80
2021/11/29 12:42:22;;;;;;;10.87;6.60;;;;;;;;;;4860267;29;20038;-81
2021/11/29 12:44:52;;;;;;;11.88;6.03;;;;;;;;;;4855291;29;20290;-81
2021/11/29 12:47:20;;;;;;;12.18;8.57;;;;;;;;;;4855233;29;20045;-81
2021/11/29 12:49:46;;;;;;;11.50;7.68;;;;;;;;;;4860711;29;20041;-80
2021/11/29 12:52:27;;;;;;;15.18;10.10;;;;;;;;;;4855510;29;20037;-80
2021/11/29 12:54:54;;;;;;;9.13;4.65;;;;;;;;;;4848521;29;20059;-80
2021/11/29 12:57:22;;;;;;;8.85;3.60;;;;;;;;;;4852481;29;20781;-80
2021/11/29 12:59:50;;;;;;;8.45;4.32;;;;;;;;;;4855485;29;20072;-80
2021/11/29 13:02:35;;;;;;;7.22;4.38;;;;;;;;;;4857856;29;20052;-80
2021/11/29 13:05:01;;;;;;;9.75;4.47;;;;;;;;;;4850297;29;20691;-79
2021/11/29 13:07:46;;;;;;;8.43;4.60;;;;;;;;;;4850896;29;20112;-80
2021/11/29 13:10:31;;;;;;;9.75;4.60;;;;;;;;;;4843888;29;20113;-79
2021/11/29 13:13:15;;;;;;;10.05;5.20;;;;;;;;;;4842444;29;20070;-80
2021/11/29 13:16:10;;;;;;;8.30;4.72;;;;;;;;;;4848784;29;20048;-79
2021/11/29 13:21:17;;;;;;;12.15;6.43;;;;;;;;;;4873144;29;20085;-79
2021/11/29 13:23:44;;;;;;;14.85;8.13;;;;;;;;;;4866064;29;20128;-80
2021/11/29 13:26:11;;;;;;;20.75;15.27;;;;;;;;;;4867095;29;20072;-80
2021/11/29 13:28:37;;;;;;;13.05;7.88;;;;;;;;;;4846144;29;20045;-80
2021/11/29 13:31:03;;;;;;;13.02;6.88;;;;;;;;;;4838653;29;20037;-80
2021/11/29 13:33:29;;;;;;;13.23;7.95;;;;;;;;;;4855726;29;20477;-79
2021/11/29 13:36:02;;;;;;;16.25;9.93;;;;;;;;;;4857048;29;20033;-80
2021/11/29 13:38:28;;;;;;;11.77;7.65;;;;;;;;;;4855046;29;20033;-80
2021/11/29 13:40:54;;;;;;;14.32;8.43;;;;;;;;;;4845157;29;20077;-80
2021/11/29 13:43:24;;;;;;;12.80;6.97;;;;;;;;;;4868306;29;20065;-80
2021/11/29 13:45:50;;;;;;;12.73;7.03;;;;;;;;;;4842347;29;20110;-80
2021/11/29 13:48:16;;;;;;;10.05;6.07;;;;;;;;;;4856803;29;20042;-80
2021/11/29 13:50:52;;;;;;;11.68;5.68;;;;;;;;;;4842151;29;20042;-80
2021/11/29 13:53:20;;;;;;;11.27;7.00;;;;;;;;;;4846377;29;20069;-80
2021/11/29 13:55:57;;;;;;;15.15;7.65;;;;;;;;;;4838549;29;20552;-80
2021/11/29 13:58:26;;;;;;;11.93;7.80;;;;;;;;;;4857240;29;20132;-80
2021/11/29 14:00:53;;;;;;;11.32;7.38;;;;;;;;;;4856080;29;20560;-80
2021/11/29 14:03:27;;;;;;;11.80;6.72;;;;;;;;;;4854224;29;20038;-80
2021/11/29 14:05:59;;;;;;;12.52;7.47;;;;;;;;;;4853424;29;20040;-80
2021/11/29 14:08:32;;;;;;;12.43;7.82;;;;;;;;;;4856329;29;20709;-80
2021/11/29 14:10:59;;;;;;;12.85;8.07;;;;;;;;;;4852239;29;20488;-80
2021/11/29 14:13:25;;;;;;;12.88;6.97;;;;;;;;;;4838774;29;20049;-80
2021/11/29 14:16:07;;;;;;;13.48;8.48;;;;;;;;;;4856573;29;20042;-80
2021/11/29 14:18:51;;;;;;;14.38;8.80;;;;;;;;;;4857028;29;20041;-80
2021/11/29 14:21:23;;;;;;;13.48;8.63;;;;;;;;;;4867829;29;20037;-80
2021/11/29 14:23:49;;;;;;;12.55;7.00;;;;;;;;;;4855616;29;20128;-80
2021/11/29 14:26:34;;;;;;;13.93;7.88;;;;;;;;;;4850236;29;20121;-80
2021/11/29 14:29:02;;;;;;;14.85;8.45;;;;;;;;;;4839792;29;20062;-80